Amalia, New Mexico
Current Conditions -  °F | °C
As of 1:35 AM on Wednesday 26 Nov 2014 (Local Time) from KSKX Reporting Station
Clear Clear  
Wind Chill:   Ceiling: Unl
Heat Index: 18°   Visibility: 10mi
Dew Point:   Wind: 6mph
Humidity: 68%   Direction: 60°ENE
Pressure: 30.29"   Gusts: NA
Location:  36.94°N, 105.45°W
Report Text: KSKX 260835Z AUTO 06005KT 10SM CLR M08/M13 A3029 RMK AO1
Loading
Personal Weather Stations






























Interactive Weather Map New forecast layout! Learn more

10-Day Weather Forecast

Advertisements
Track Severe Weather on mobile